sensor_id;sensor_type;location;lat;lon;timestamp;P1;durP1;ratioP1;P2;durP2;ratioP2
70558;SDS011;58108;48.094;11.838;2023-03-20T00:00:01;6.90;;;3.13;;
70558;SDS011;58108;48.094;11.838;2023-03-20T00:02:26;6.13;;;3.10;;
70558;SDS011;58108;48.094;11.838;2023-03-20T00:04:51;6.23;;;3.40;;
70558;SDS011;58108;48.094;11.838;2023-03-20T00:07:17;6.75;;;1.85;;
70558;SDS011;58108;48.094;11.838;2023-03-20T00:09:42;5.17;;;2.50;;
70558;SDS011;58108;48.094;11.838;2023-03-20T00:12:09;5.75;;;2.88;;
70558;SDS011;58108;48.094;11.838;2023-03-20T00:14:35;5.72;;;2.42;;
70558;SDS011;58108;48.094;11.838;2023-03-20T00:17:00;6.50;;;2.80;;
70558;SDS011;58108;48.094;11.838;2023-03-20T00:19:26;6.15;;;2.90;;
70558;SDS011;58108;48.094;11.838;2023-03-20T00:21:53;7.43;;;3.35;;
70558;SDS011;58108;48.094;11.838;2023-03-20T00:24:19;7.97;;;3.17;;
70558;SDS011;58108;48.094;11.838;2023-03-20T00:26:45;6.30;;;3.17;;
70558;SDS011;58108;48.094;11.838;2023-03-20T00:31:41;5.93;;;2.67;;
70558;SDS011;58108;48.094;11.838;2023-03-20T00:34:11;6.47;;;3.22;;
70558;SDS011;58108;48.094;11.838;2023-03-20T00:36:36;6.20;;;3.40;;
70558;SDS011;58108;48.094;11.838;2023-03-20T00:39:02;7.03;;;2.80;;
70558;SDS011;58108;48.094;11.838;2023-03-20T00:44:21;5.37;;;2.73;;
70558;SDS011;58108;48.094;11.838;2023-03-20T00:46:52;5.18;;;2.58;;
70558;SDS011;58108;48.094;11.838;2023-03-20T00:49:18;5.75;;;2.95;;
70558;SDS011;58108;48.094;11.838;2023-03-20T00:51:44;5.20;;;2.42;;
70558;SDS011;58108;48.094;11.838;2023-03-20T00:54:13;5.17;;;2.40;;
70558;SDS011;58108;48.094;11.838;2023-03-20T00:56:39;6.68;;;2.60;;
70558;SDS011;58108;48.094;11.838;2023-03-20T00:59:08;6.57;;;2.65;;
70558;SDS011;58108;48.094;11.838;2023-03-20T01:01:37;5.38;;;2.70;;
70558;SDS011;58108;48.094;11.838;2023-03-20T01:04:05;8.23;;;3.60;;
70558;SDS011;58108;48.094;11.838;2023-03-20T01:06:33;5.80;;;2.80;;
70558;SDS011;58108;48.094;11.838;2023-03-20T01:08:58;6.17;;;2.70;;
70558;SDS011;58108;48.094;11.838;2023-03-20T01:11:24;5.60;;;2.80;;
70558;SDS011;58108;48.094;11.838;2023-03-20T01:13:49;5.53;;;2.70;;
70558;SDS011;58108;48.094;11.838;2023-03-20T01:16:23;5.55;;;2.67;;
70558;SDS011;58108;48.094;11.838;2023-03-20T01:18:48;7.25;;;2.75;;
70558;SDS011;58108;48.094;11.838;2023-03-20T01:21:14;6.30;;;2.97;;
70558;SDS011;58108;48.094;11.838;2023-03-20T01:23:39;6.20;;;3.00;;
70558;SDS011;58108;48.094;11.838;2023-03-20T01:26:10;6.17;;;3.40;;
70558;SDS011;58108;48.094;11.838;2023-03-20T01:28:35;6.07;;;3.20;;
70558;SDS011;58108;48.094;11.838;2023-03-20T01:31:00;7.80;;;3.50;;
70558;SDS011;58108;48.094;11.838;2023-03-20T01:33:26;6.37;;;3.10;;
70558;SDS011;58108;48.094;11.838;2023-03-20T01:35:53;6.25;;;3.17;;
70558;SDS011;58108;48.094;11.838;2023-03-20T01:38:25;6.67;;;3.40;;
70558;SDS011;58108;48.094;11.838;2023-03-20T01:40:55;6.20;;;3.33;;
70558;SDS011;58108;48.094;11.838;2023-03-20T01:43:21;7.75;;;3.03;;
70558;SDS011;58108;48.094;11.838;2023-03-20T01:53:51;5.90;;;2.60;;
70558;SDS011;58108;48.094;11.838;2023-03-20T01:56:18;5.93;;;2.58;;
70558;SDS011;58108;48.094;11.838;2023-03-20T01:58:45;5.90;;;3.10;;
70558;SDS011;58108;48.094;11.838;2023-03-20T02:01:11;6.13;;;2.90;;
70558;SDS011;58108;48.094;11.838;2023-03-20T02:03:37;5.50;;;2.88;;
70558;SDS011;58108;48.094;11.838;2023-03-20T02:06:03;6.33;;;2.90;;
70558;SDS011;58108;48.094;11.838;2023-03-20T02:08:30;5.88;;;2.80;;
70558;SDS011;58108;48.094;11.838;2023-03-20T02:10:56;6.07;;;2.80;;
70558;SDS011;58108;48.094;11.838;2023-03-20T02:13:22;5.90;;;3.03;;
70558;SDS011;58108;48.094;11.838;2023-03-20T02:15:55;4.32;;;1.70;;
70558;SDS011;58108;48.094;11.838;2023-03-20T02:18:21;6.00;;;2.30;;
70558;SDS011;58108;48.094;11.838;2023-03-20T02:21:06;6.53;;;2.20;;
70558;SDS011;58108;48.094;11.838;2023-03-20T02:46:10;2.77;;;1.30;;
70558;SDS011;58108;48.094;11.838;2023-03-20T02:51:11;3.30;;;1.38;;
70558;SDS011;58108;48.094;11.838;2023-03-20T02:58:36;3.70;;;1.30;;
70558;SDS011;58108;48.094;11.838;2023-03-20T03:03:32;4.03;;;1.73;;
70558;SDS011;58108;48.094;11.838;2023-03-20T03:06:01;4.07;;;1.73;;
70558;SDS011;58108;48.094;11.838;2023-03-20T03:08:31;3.60;;;1.40;;
70558;SDS011;58108;48.094;11.838;2023-03-20T03:11:05;3.88;;;1.65;;
70558;SDS011;58108;48.094;11.838;2023-03-20T03:13:31;3.93;;;1.70;;
70558;SDS011;58108;48.094;11.838;2023-03-20T03:16:02;4.32;;;1.75;;
70558;SDS011;58108;48.094;11.838;2023-03-20T03:18:29;4.45;;;1.80;;
70558;SDS011;58108;48.094;11.838;2023-03-20T03:20:56;3.88;;;1.00;;
70558;SDS011;58108;48.094;11.838;2023-03-20T03:23:25;3.15;;;1.55;;
70558;SDS011;58108;48.094;11.838;2023-03-20T03:25:50;3.33;;;1.47;;
70558;SDS011;58108;48.094;11.838;2023-03-20T03:28:22;3.92;;;1.80;;
70558;SDS011;58108;48.094;11.838;2023-03-20T03:30:49;5.25;;;1.75;;
70558;SDS011;58108;48.094;11.838;2023-03-20T03:33:18;4.05;;;1.70;;
70558;SDS011;58108;48.094;11.838;2023-03-20T03:35:45;3.70;;;1.50;;
70558;SDS011;58108;48.094;11.838;2023-03-20T03:43:50;3.03;;;1.20;;
70558;SDS011;58108;48.094;11.838;2023-03-20T03:45:54;3.70;;;1.60;;
70558;SDS011;58108;48.094;11.838;2023-03-20T03:48:29;4.53;;;1.73;;
70558;SDS011;58108;48.094;11.838;2023-03-20T03:50:57;3.58;;;1.60;;
70558;SDS011;58108;48.094;11.838;2023-03-20T03:53:26;3.15;;;0.90;;
70558;SDS011;58108;48.094;11.838;2023-03-20T03:55:54;4.35;;;1.60;;
70558;SDS011;58108;48.094;11.838;2023-03-20T04:00:47;4.00;;;1.48;;
70558;SDS011;58108;48.094;11.838;2023-03-20T04:03:14;5.10;;;1.80;;
70558;SDS011;58108;48.094;11.838;2023-03-20T04:05:40;4.00;;;1.63;;
70558;SDS011;58108;48.094;11.838;2023-03-20T04:08:06;4.25;;;1.80;;
70558;SDS011;58108;48.094;11.838;2023-03-20T04:10:32;4.13;;;1.50;;
70558;SDS011;58108;48.094;11.838;2023-03-20T04:12:57;3.20;;;1.27;;
70558;SDS011;58108;48.094;11.838;2023-03-20T04:15:22;4.03;;;1.60;;
70558;SDS011;58108;48.094;11.838;2023-03-20T04:17:47;3.37;;;1.53;;
70558;SDS011;58108;48.094;11.838;2023-03-20T04:20:13;3.93;;;1.30;;
70558;SDS011;58108;48.094;11.838;2023-03-20T04:22:38;3.37;;;1.50;;
70558;SDS011;58108;48.094;11.838;2023-03-20T04:25:04;4.27;;;1.47;;
70558;SDS011;58108;48.094;11.838;2023-03-20T04:27:30;3.65;;;1.20;;
70558;SDS011;58108;48.094;11.838;2023-03-20T04:29:55;3.73;;;1.50;;
70558;SDS011;58108;48.094;11.838;2023-03-20T04:32:20;2.80;;;1.10;;
70558;SDS011;58108;48.094;11.838;2023-03-20T04:34:46;3.13;;;1.30;;
70558;SDS011;58108;48.094;11.838;2023-03-20T04:37:11;3.10;;;1.20;;
70558;SDS011;58108;48.094;11.838;2023-03-20T04:39:36;3.20;;;1.23;;
70558;SDS011;58108;48.094;11.838;2023-03-20T04:42:02;3.97;;;1.47;;
70558;SDS011;58108;48.094;11.838;2023-03-20T04:44:28;4.00;;;1.42;;
70558;SDS011;58108;48.094;11.838;2023-03-20T04:46:53;4.17;;;1.57;;
70558;SDS011;58108;48.094;11.838;2023-03-20T04:49:18;3.17;;;1.20;;
70558;SDS011;58108;48.094;11.838;2023-03-20T04:51:44;3.57;;;1.40;;
70558;SDS011;58108;48.094;11.838;2023-03-20T04:54:09;2.70;;;1.17;;
70558;SDS011;58108;48.094;11.838;2023-03-20T04:56:34;2.90;;;1.20;;
70558;SDS011;58108;48.094;11.838;2023-03-20T04:58:59;5.80;;;1.30;;
70558;SDS011;58108;48.094;11.838;2023-03-20T05:01:25;4.88;;;1.60;;
70558;SDS011;58108;48.094;11.838;2023-03-20T05:03:50;4.23;;;1.50;;
70558;SDS011;58108;48.094;11.838;2023-03-20T05:06:16;3.77;;;1.30;;
70558;SDS011;58108;48.094;11.838;2023-03-20T05:08:41;2.97;;;1.10;;
70558;SDS011;58108;48.094;11.838;2023-03-20T05:11:06;3.80;;;1.20;;
70558;SDS011;58108;48.094;11.838;2023-03-20T05:13:32;3.50;;;0.93;;
70558;SDS011;58108;48.094;11.838;2023-03-20T05:15:57;3.03;;;1.23;;
70558;SDS011;58108;48.094;11.838;2023-03-20T05:18:22;4.30;;;1.10;;
70558;SDS011;58108;48.094;11.838;2023-03-20T05:20:48;3.77;;;1.17;;
70558;SDS011;58108;48.094;11.838;2023-03-20T05:23:13;3.00;;;1.20;;
70558;SDS011;58108;48.094;11.838;2023-03-20T05:25:38;6.90;;;1.40;;
70558;SDS011;58108;48.094;11.838;2023-03-20T05:28:03;3.73;;;1.40;;
70558;SDS011;58108;48.094;11.838;2023-03-20T05:30:29;2.17;;;0.70;;
70558;SDS011;58108;48.094;11.838;2023-03-20T05:32:54;3.33;;;1.00;;
70558;SDS011;58108;48.094;11.838;2023-03-20T05:35:20;3.78;;;1.30;;
70558;SDS011;58108;48.094;11.838;2023-03-20T05:37:45;2.80;;;1.10;;
70558;SDS011;58108;48.094;11.838;2023-03-20T05:40:11;4.17;;;1.23;;
70558;SDS011;58108;48.094;11.838;2023-03-20T05:42:36;3.95;;;1.23;;
70558;SDS011;58108;48.094;11.838;2023-03-20T05:45:02;3.57;;;1.20;;
70558;SDS011;58108;48.094;11.838;2023-03-20T05:47:27;2.50;;;0.70;;
70558;SDS011;58108;48.094;11.838;2023-03-20T05:49:53;3.80;;;1.20;;
70558;SDS011;58108;48.094;11.838;2023-03-20T05:52:18;2.43;;;0.70;;
70558;SDS011;58108;48.094;11.838;2023-03-20T05:54:43;2.80;;;1.20;;
70558;SDS011;58108;48.094;11.838;2023-03-20T05:57:08;3.03;;;1.20;;
70558;SDS011;58108;48.094;11.838;2023-03-20T05:59:33;3.27;;;0.90;;
70558;SDS011;58108;48.094;11.838;2023-03-20T06:01:59;3.50;;;1.07;;
70558;SDS011;58108;48.094;11.838;2023-03-20T06:04:24;3.50;;;1.43;;
70558;SDS011;58108;48.094;11.838;2023-03-20T06:06:49;4.45;;;1.38;;
70558;SDS011;58108;48.094;11.838;2023-03-20T06:09:15;3.60;;;1.60;;
70558;SDS011;58108;48.094;11.838;2023-03-20T06:11:40;4.77;;;1.67;;
70558;SDS011;58108;48.094;11.838;2023-03-20T06:14:05;4.17;;;1.70;;
70558;SDS011;58108;48.094;11.838;2023-03-20T06:16:30;4.00;;;1.80;;
70558;SDS011;58108;48.094;11.838;2023-03-20T06:18:55;4.80;;;1.77;;
70558;SDS011;58108;48.094;11.838;2023-03-20T06:21:21;4.90;;;1.57;;
70558;SDS011;58108;48.094;11.838;2023-03-20T06:23:46;4.57;;;1.67;;
70558;SDS011;58108;48.094;11.838;2023-03-20T06:26:11;3.90;;;1.63;;
70558;SDS011;58108;48.094;11.838;2023-03-20T06:28:36;4.00;;;1.57;;
70558;SDS011;58108;48.094;11.838;2023-03-20T06:31:02;3.50;;;1.50;;
70558;SDS011;58108;48.094;11.838;2023-03-20T06:33:27;4.13;;;1.70;;
70558;SDS011;58108;48.094;11.838;2023-03-20T06:35:52;4.60;;;1.60;;
70558;SDS011;58108;48.094;11.838;2023-03-20T06:38:18;4.30;;;1.50;;
70558;SDS011;58108;48.094;11.838;2023-03-20T06:40:43;4.73;;;1.97;;
70558;SDS011;58108;48.094;11.838;2023-03-20T06:43:09;4.82;;;1.77;;
70558;SDS011;58108;48.094;11.838;2023-03-20T06:45:36;4.10;;;1.70;;
70558;SDS011;58108;48.094;11.838;2023-03-20T06:48:04;4.83;;;1.83;;
70558;SDS011;58108;48.094;11.838;2023-03-20T06:50:29;4.90;;;1.83;;
70558;SDS011;58108;48.094;11.838;2023-03-20T06:52:54;4.23;;;1.70;;
70558;SDS011;58108;48.094;11.838;2023-03-20T06:55:20;3.97;;;1.80;;
70558;SDS011;58108;48.094;11.838;2023-03-20T06:57:45;5.87;;;1.97;;
70558;SDS011;58108;48.094;11.838;2023-03-20T07:00:10;6.03;;;2.33;;
70558;SDS011;58108;48.094;11.838;2023-03-20T07:02:36;5.17;;;2.10;;
70558;SDS011;58108;48.094;11.838;2023-03-20T07:05:01;6.30;;;2.60;;
70558;SDS011;58108;48.094;11.838;2023-03-20T07:07:27;5.78;;;2.30;;
70558;SDS011;58108;48.094;11.838;2023-03-20T07:09:52;7.07;;;2.37;;
70558;SDS011;58108;48.094;11.838;2023-03-20T07:12:17;5.30;;;2.63;;
70558;SDS011;58108;48.094;11.838;2023-03-20T07:14:44;10.03;;;3.17;;
70558;SDS011;58108;48.094;11.838;2023-03-20T07:17:09;6.97;;;3.20;;
70558;SDS011;58108;48.094;11.838;2023-03-20T07:19:35;7.03;;;3.13;;
70558;SDS011;58108;48.094;11.838;2023-03-20T07:22:01;5.50;;;2.58;;
70558;SDS011;58108;48.094;11.838;2023-03-20T07:24:26;6.78;;;2.97;;
70558;SDS011;58108;48.094;11.838;2023-03-20T07:26:52;8.43;;;3.43;;
70558;SDS011;58108;48.094;11.838;2023-03-20T07:29:17;7.40;;;3.57;;
70558;SDS011;58108;48.094;11.838;2023-03-20T07:31:42;7.87;;;3.50;;
70558;SDS011;58108;48.094;11.838;2023-03-20T07:34:07;10.30;;;3.77;;
70558;SDS011;58108;48.094;11.838;2023-03-20T07:36:33;8.17;;;2.97;;
70558;SDS011;58108;48.094;11.838;2023-03-20T07:38:58;6.70;;;2.97;;
70558;SDS011;58108;48.094;11.838;2023-03-20T07:41:23;8.20;;;3.83;;
70558;SDS011;58108;48.094;11.838;2023-03-20T07:43:48;8.93;;;3.40;;
70558;SDS011;58108;48.094;11.838;2023-03-20T07:46:13;10.13;;;4.00;;
70558;SDS011;58108;48.094;11.838;2023-03-20T07:48:39;11.10;;;4.60;;
70558;SDS011;58108;48.094;11.838;2023-03-20T07:51:04;6.93;;;3.00;;
70558;SDS011;58108;48.094;11.838;2023-03-20T07:53:29;9.63;;;3.70;;
70558;SDS011;58108;48.094;11.838;2023-03-20T07:55:55;7.80;;;3.67;;
70558;SDS011;58108;48.094;11.838;2023-03-20T07:58:20;7.87;;;3.77;;
70558;SDS011;58108;48.094;11.838;2023-03-20T08:00:45;9.70;;;3.77;;
70558;SDS011;58108;48.094;11.838;2023-03-20T08:03:10;10.70;;;4.17;;
70558;SDS011;58108;48.094;11.838;2023-03-20T08:05:36;10.30;;;4.40;;
70558;SDS011;58108;48.094;11.838;2023-03-20T08:08:01;8.07;;;3.73;;
70558;SDS011;58108;48.094;11.838;2023-03-20T08:10:26;7.15;;;3.17;;
70558;SDS011;58108;48.094;11.838;2023-03-20T08:12:52;4.80;;;1.93;;
70558;SDS011;58108;48.094;11.838;2023-03-20T08:15:17;7.90;;;3.57;;
70558;SDS011;58108;48.094;11.838;2023-03-20T08:17:43;7.00;;;2.90;;
70558;SDS011;58108;48.094;11.838;2023-03-20T08:20:08;8.70;;;3.50;;
70558;SDS011;58108;48.094;11.838;2023-03-20T08:22:34;8.15;;;3.58;;
70558;SDS011;58108;48.094;11.838;2023-03-20T08:24:59;10.07;;;4.23;;
70558;SDS011;58108;48.094;11.838;2023-03-20T08:27:25;7.40;;;3.27;;
70558;SDS011;58108;48.094;11.838;2023-03-20T08:29:50;7.00;;;3.33;;
70558;SDS011;58108;48.094;11.838;2023-03-20T08:32:15;9.80;;;3.30;;
70558;SDS011;58108;48.094;11.838;2023-03-20T08:34:41;7.73;;;3.60;;
70558;SDS011;58108;48.094;11.838;2023-03-20T08:37:06;8.37;;;3.87;;
70558;SDS011;58108;48.094;11.838;2023-03-20T08:39:32;7.43;;;3.30;;
70558;SDS011;58108;48.094;11.838;2023-03-20T08:41:57;7.13;;;2.70;;
70558;SDS011;58108;48.094;11.838;2023-03-20T08:44:22;8.80;;;3.87;;
70558;SDS011;58108;48.094;11.838;2023-03-20T08:46:47;7.87;;;3.40;;
70558;SDS011;58108;48.094;11.838;2023-03-20T08:49:13;6.77;;;3.70;;
70558;SDS011;58108;48.094;11.838;2023-03-20T08:51:38;7.60;;;3.27;;
70558;SDS011;58108;48.094;11.838;2023-03-20T08:54:03;6.53;;;2.60;;
70558;SDS011;58108;48.094;11.838;2023-03-20T08:56:29;5.07;;;1.97;;
70558;SDS011;58108;48.094;11.838;2023-03-20T08:58:54;9.18;;;3.10;;
70558;SDS011;58108;48.094;11.838;2023-03-20T09:01:19;4.07;;;1.80;;
70558;SDS011;58108;48.094;11.838;2023-03-20T09:03:45;5.63;;;2.67;;
70558;SDS011;58108;48.094;11.838;2023-03-20T09:06:23;3.92;;;1.83;;
70558;SDS011;58108;48.094;11.838;2023-03-20T09:08:48;4.23;;;1.90;;
70558;SDS011;58108;48.094;11.838;2023-03-20T09:11:13;5.03;;;2.17;;
70558;SDS011;58108;48.094;11.838;2023-03-20T09:13:39;6.83;;;2.80;;
70558;SDS011;58108;48.094;11.838;2023-03-20T09:16:04;5.87;;;2.23;;
70558;SDS011;58108;48.094;11.838;2023-03-20T09:18:30;6.57;;;2.72;;
70558;SDS011;58108;48.094;11.838;2023-03-20T09:20:55;5.00;;;2.20;;
70558;SDS011;58108;48.094;11.838;2023-03-20T09:23:20;5.13;;;1.73;;
70558;SDS011;58108;48.094;11.838;2023-03-20T09:25:46;2.53;;;1.07;;
70558;SDS011;58108;48.094;11.838;2023-03-20T09:28:11;5.27;;;2.50;;
70558;SDS011;58108;48.094;11.838;2023-03-20T09:30:38;4.03;;;1.67;;
70558;SDS011;58108;48.094;11.838;2023-03-20T09:33:03;4.10;;;1.52;;
70558;SDS011;58108;48.094;11.838;2023-03-20T09:35:28;4.50;;;2.07;;
70558;SDS011;58108;48.094;11.838;2023-03-20T09:37:54;5.07;;;2.30;;
70558;SDS011;58108;48.094;11.838;2023-03-20T09:43:01;4.38;;;1.90;;
70558;SDS011;58108;48.094;11.838;2023-03-20T09:48:20;3.20;;;1.40;;
70558;SDS011;58108;48.094;11.838;2023-03-20T09:50:53;3.17;;;1.48;;
70558;SDS011;58108;48.094;11.838;2023-03-20T09:53:25;4.70;;;1.50;;
70558;SDS011;58108;48.094;11.838;2023-03-20T09:55:52;2.85;;;1.30;;
70558;SDS011;58108;48.094;11.838;2023-03-20T09:58:25;4.47;;;1.40;;
70558;SDS011;58108;48.094;11.838;2023-03-20T10:00:51;3.55;;;1.05;;
70558;SDS011;58108;48.094;11.838;2023-03-20T10:03:32;2.85;;;1.10;;
70558;SDS011;58108;48.094;11.838;2023-03-20T10:06:02;2.63;;;1.10;;
70558;SDS011;58108;48.094;11.838;2023-03-20T10:08:31;2.78;;;0.70;;
70558;SDS011;58108;48.094;11.838;2023-03-20T10:16:01;2.83;;;1.17;;
70558;SDS011;58108;48.094;11.838;2023-03-20T10:18:28;4.45;;;0.90;;
70558;SDS011;58108;48.094;11.838;2023-03-20T10:20:56;3.03;;;1.25;;
70558;SDS011;58108;48.094;11.838;2023-03-20T10:25:49;2.50;;;0.90;;
70558;SDS011;58108;48.094;11.838;2023-03-20T10:28:17;3.03;;;1.00;;
70558;SDS011;58108;48.094;11.838;2023-03-20T10:33:26;2.47;;;0.70;;
70558;SDS011;58108;48.094;11.838;2023-03-20T10:40:46;3.53;;;0.90;;
70558;SDS011;58108;48.094;11.838;2023-03-20T10:48:15;2.53;;;0.70;;
70558;SDS011;58108;48.094;11.838;2023-03-20T10:50:42;2.25;;;0.70;;
70558;SDS011;58108;48.094;11.838;2023-03-20T10:53:09;3.40;;;0.90;;
70558;SDS011;58108;48.094;11.838;2023-03-20T10:55:39;2.05;;;0.52;;
70558;SDS011;58108;48.094;11.838;2023-03-20T10:58:22;2.75;;;1.13;;
70558;SDS011;58108;48.094;11.838;2023-03-20T11:00:48;3.83;;;1.40;;
70558;SDS011;58108;48.094;11.838;2023-03-20T11:03:21;4.13;;;1.47;;
70558;SDS011;58108;48.094;11.838;2023-03-20T11:05:47;4.20;;;1.80;;
70558;SDS011;58108;48.094;11.838;2023-03-20T11:08:15;4.53;;;1.65;;
70558;SDS011;58108;48.094;11.838;2023-03-20T11:10:41;4.37;;;2.00;;
70558;SDS011;58108;48.094;11.838;2023-03-20T11:15:52;4.32;;;2.10;;
70558;SDS011;58108;48.094;11.838;2023-03-20T11:18:17;4.88;;;2.08;;
70558;SDS011;58108;48.094;11.838;2023-03-20T11:20:56;2.63;;;0.70;;
70558;SDS011;58108;48.094;11.838;2023-03-20T11:23:25;2.40;;;0.60;;
70558;SDS011;58108;48.094;11.838;2023-03-20T11:25:52;1.88;;;0.50;;
70558;SDS011;58108;48.094;11.838;2023-03-20T11:30:46;2.13;;;0.50;;
70558;SDS011;58108;48.094;11.838;2023-03-20T11:33:11;2.00;;;0.40;;
70558;SDS011;58108;48.094;11.838;2023-03-20T11:35:37;1.77;;;0.50;;
70558;SDS011;58108;48.094;11.838;2023-03-20T11:38:13;2.38;;;0.30;;
70558;SDS011;58108;48.094;11.838;2023-03-20T11:40:38;2.47;;;0.50;;
70558;SDS011;58108;48.094;11.838;2023-03-20T11:43:14;2.70;;;0.50;;
70558;SDS011;58108;48.094;11.838;2023-03-20T11:45:47;1.60;;;0.20;;
70558;SDS011;58108;48.094;11.838;2023-03-20T11:48:17;2.10;;;0.60;;
70558;SDS011;58108;48.094;11.838;2023-03-20T11:55:55;2.10;;;0.73;;
70558;SDS011;58108;48.094;11.838;2023-03-20T11:58:22;2.10;;;0.60;;
70558;SDS011;58108;48.094;11.838;2023-03-20T12:00:48;3.08;;;1.40;;
70558;SDS011;58108;48.094;11.838;2023-03-20T12:05:59;2.28;;;0.70;;
70558;SDS011;58108;48.094;11.838;2023-03-20T12:08:25;2.47;;;0.70;;
70558;SDS011;58108;48.094;11.838;2023-03-20T12:10:54;1.60;;;0.50;;
70558;SDS011;58108;48.094;11.838;2023-03-20T12:13:28;2.83;;;0.85;;
70558;SDS011;58108;48.094;11.838;2023-03-20T12:16:05;1.80;;;0.70;;
70558;SDS011;58108;48.094;11.838;2023-03-20T12:18:35;2.07;;;0.50;;
70558;SDS011;58108;48.094;11.838;2023-03-20T12:26:19;2.00;;;0.63;;
70558;SDS011;58108;48.094;11.838;2023-03-20T12:31:35;4.70;;;2.55;;
70558;SDS011;58108;48.094;11.838;2023-03-20T12:34:04;3.93;;;1.90;;
70558;SDS011;58108;48.094;11.838;2023-03-20T12:36:35;3.33;;;1.50;;
70558;SDS011;58108;48.094;11.838;2023-03-20T12:39:02;3.47;;;1.50;;
70558;SDS011;58108;48.094;11.838;2023-03-20T12:41:29;2.20;;;0.80;;
70558;SDS011;58108;48.094;11.838;2023-03-20T12:46:49;2.13;;;0.60;;
70558;SDS011;58108;48.094;11.838;2023-03-20T12:49:28;3.58;;;0.93;;
70558;SDS011;58108;48.094;11.838;2023-03-20T12:54:25;4.23;;;1.50;;
70558;SDS011;58108;48.094;11.838;2023-03-20T12:56:58;3.35;;;1.10;;
70558;SDS011;58108;48.094;11.838;2023-03-20T12:59:44;1.63;;;0.20;;
70558;SDS011;58108;48.094;11.838;2023-03-20T13:02:29;3.53;;;1.40;;
70558;SDS011;58108;48.094;11.838;2023-03-20T13:07:35;4.20;;;1.13;;
70558;SDS011;58108;48.094;11.838;2023-03-20T13:10:07;2.78;;;0.77;;
70558;SDS011;58108;48.094;11.838;2023-03-20T13:12:37;2.38;;;0.80;;
70558;SDS011;58108;48.094;11.838;2023-03-20T13:15:13;2.53;;;0.60;;
70558;SDS011;58108;48.094;11.838;2023-03-20T13:20:12;2.33;;;0.30;;
70558;SDS011;58108;48.094;11.838;2023-03-20T13:22:52;3.17;;;0.40;;
70558;SDS011;58108;48.094;11.838;2023-03-20T13:25:24;3.25;;;0.70;;
70558;SDS011;58108;48.094;11.838;2023-03-20T13:27:56;3.00;;;1.30;;
70558;SDS011;58108;48.094;11.838;2023-03-20T13:30:27;3.33;;;1.17;;
70558;SDS011;58108;48.094;11.838;2023-03-20T13:37:58;2.47;;;0.50;;
70558;SDS011;58108;48.094;11.838;2023-03-20T13:40:26;3.55;;;0.82;;
70558;SDS011;58108;48.094;11.838;2023-03-20T13:42:59;2.05;;;0.40;;
70558;SDS011;58108;48.094;11.838;2023-03-20T13:45:34;2.42;;;0.50;;
70558;SDS011;58108;48.094;11.838;2023-03-20T13:48:06;2.95;;;0.55;;
70558;SDS011;58108;48.094;11.838;2023-03-20T13:53:47;4.20;;;0.73;;
70558;SDS011;58108;48.094;11.838;2023-03-20T13:56:07;2.15;;;0.55;;
70558;SDS011;58108;48.094;11.838;2023-03-20T13:58:38;2.50;;;1.00;;
70558;SDS011;58108;48.094;11.838;2023-03-20T14:01:11;2.40;;;0.77;;
70558;SDS011;58108;48.094;11.838;2023-03-20T14:03:39;2.55;;;0.75;;
70558;SDS011;58108;48.094;11.838;2023-03-20T14:08:52;3.03;;;1.40;;
70558;SDS011;58108;48.094;11.838;2023-03-20T14:13:55;2.63;;;0.70;;
70558;SDS011;58108;48.094;11.838;2023-03-20T14:16:21;2.22;;;1.00;;
70558;SDS011;58108;48.094;11.838;2023-03-20T14:18:47;2.83;;;0.70;;
70558;SDS011;58108;48.094;11.838;2023-03-20T14:21:17;2.33;;;0.80;;
70558;SDS011;58108;48.094;11.838;2023-03-20T14:23:56;2.30;;;0.90;;
70558;SDS011;58108;48.094;11.838;2023-03-20T14:26:31;2.22;;;0.57;;
70558;SDS011;58108;48.094;11.838;2023-03-20T14:29:00;2.63;;;0.60;;
70558;SDS011;58108;48.094;11.838;2023-03-20T14:31:30;2.53;;;0.70;;
70558;SDS011;58108;48.094;11.838;2023-03-20T14:34:07;2.38;;;0.73;;
70558;SDS011;58108;48.094;11.838;2023-03-20T14:44:38;2.17;;;0.90;;
70558;SDS011;58108;48.094;11.838;2023-03-20T14:47:15;2.05;;;0.50;;
70558;SDS011;58108;48.094;11.838;2023-03-20T14:54:57;1.30;;;0.30;;
70558;SDS011;58108;48.094;11.838;2023-03-20T14:57:37;1.30;;;0.20;;
70558;SDS011;58108;48.094;11.838;2023-03-20T15:00:03;2.10;;;0.30;;
70558;SDS011;58108;48.094;11.838;2023-03-20T15:02:30;2.13;;;0.40;;
70558;SDS011;58108;48.094;11.838;2023-03-20T15:04:58;1.67;;;0.40;;
70558;SDS011;58108;48.094;11.838;2023-03-20T15:07:34;1.73;;;0.40;;
70558;SDS011;58108;48.094;11.838;2023-03-20T15:10:00;1.80;;;0.30;;
70558;SDS011;58108;48.094;11.838;2023-03-20T15:12:27;2.13;;;0.40;;
70558;SDS011;58108;48.094;11.838;2023-03-20T15:14:55;2.13;;;0.40;;
70558;SDS011;58108;48.094;11.838;2023-03-20T15:17:23;1.85;;;0.40;;
70558;SDS011;58108;48.094;11.838;2023-03-20T15:19:49;1.90;;;0.60;;
70558;SDS011;58108;48.094;11.838;2023-03-20T15:22:16;2.47;;;0.57;;
70558;SDS011;58108;48.094;11.838;2023-03-20T15:24:41;1.83;;;0.40;;
70558;SDS011;58108;48.094;11.838;2023-03-20T15:27:08;2.47;;;0.40;;
70558;SDS011;58108;48.094;11.838;2023-03-20T15:29:35;1.90;;;0.55;;
70558;SDS011;58108;48.094;11.838;2023-03-20T15:32:00;2.53;;;0.50;;
70558;SDS011;58108;48.094;11.838;2023-03-20T15:34:27;2.33;;;0.80;;
70558;SDS011;58108;48.094;11.838;2023-03-20T15:36:55;1.50;;;0.30;;
70558;SDS011;58108;48.094;11.838;2023-03-20T15:39:22;2.50;;;0.60;;
70558;SDS011;58108;48.094;11.838;2023-03-20T15:41:52;2.33;;;0.60;;
70558;SDS011;58108;48.094;11.838;2023-03-20T15:44:19;2.03;;;0.50;;
70558;SDS011;58108;48.094;11.838;2023-03-20T15:46:56;5.07;;;3.67;;
70558;SDS011;58108;48.094;11.838;2023-03-20T15:49:22;2.88;;;1.33;;
70558;SDS011;58108;48.094;11.838;2023-03-20T15:51:48;2.20;;;0.60;;
70558;SDS011;58108;48.094;11.838;2023-03-20T15:54:14;1.95;;;0.70;;
70558;SDS011;58108;48.094;11.838;2023-03-20T15:56:41;2.15;;;0.80;;
70558;SDS011;58108;48.094;11.838;2023-03-20T15:59:10;2.40;;;0.70;;
70558;SDS011;58108;48.094;11.838;2023-03-20T16:01:37;2.28;;;0.75;;
70558;SDS011;58108;48.094;11.838;2023-03-20T16:04:03;3.60;;;1.20;;
70558;SDS011;58108;48.094;11.838;2023-03-20T16:06:28;3.00;;;1.20;;
70558;SDS011;58108;48.094;11.838;2023-03-20T16:11:32;4.80;;;1.98;;
70558;SDS011;58108;48.094;11.838;2023-03-20T16:13:59;4.43;;;1.55;;
70558;SDS011;58108;48.094;11.838;2023-03-20T16:16:24;12.07;;;4.60;;
70558;SDS011;58108;48.094;11.838;2023-03-20T16:18:49;14.13;;;5.57;;
70558;SDS011;58108;48.094;11.838;2023-03-20T16:21:22;5.40;;;2.27;;
70558;SDS011;58108;48.094;11.838;2023-03-20T16:23:49;3.33;;;1.30;;
70558;SDS011;58108;48.094;11.838;2023-03-20T16:26:16;4.00;;;1.52;;
70558;SDS011;58108;48.094;11.838;2023-03-20T16:28:44;3.10;;;1.00;;
70558;SDS011;58108;48.094;11.838;2023-03-20T16:31:19;5.28;;;1.58;;
70558;SDS011;58108;48.094;11.838;2023-03-20T16:33:46;4.13;;;1.48;;
70558;SDS011;58108;48.094;11.838;2023-03-20T16:36:14;3.33;;;1.20;;
70558;SDS011;58108;48.094;11.838;2023-03-20T16:38:40;5.22;;;1.63;;
70558;SDS011;58108;48.094;11.838;2023-03-20T16:43:51;4.20;;;2.10;;
70558;SDS011;58108;48.094;11.838;2023-03-20T16:46:19;3.60;;;1.20;;
70558;SDS011;58108;48.094;11.838;2023-03-20T16:48:46;5.68;;;2.42;;
70558;SDS011;58108;48.094;11.838;2023-03-20T16:53:43;5.20;;;2.15;;
70558;SDS011;58108;48.094;11.838;2023-03-20T16:56:10;4.97;;;1.33;;
70558;SDS011;58108;48.094;11.838;2023-03-20T16:58:35;3.70;;;1.20;;